sensor_id;sensor_type;location;lat;lon;timestamp;pressure;altitude;pressure_sealevel;temperature;humidity
58090;BME280;45149;50.976;6.120;2022-12-18T14:33:48;100951.78;;;17.02;40.81
58090;BME280;45149;50.976;6.120;2022-12-18T14:36:23;100963.44;;;17.03;40.80
58090;BME280;45149;50.976;6.120;2022-12-18T14:38:56;100971.69;;;16.96;41.14
58090;BME280;45149;50.976;6.120;2022-12-18T14:41:22;100969.94;;;16.90;41.49
58090;BME280;45149;50.976;6.120;2022-12-18T14:43:50;100963.38;;;16.86;42.05
58090;BME280;45149;50.976;6.120;2022-12-18T18:59:50;100895.41;;;17.23;48.44
58090;BME280;45149;50.976;6.120;2022-12-18T19:02:16;100891.75;;;17.29;49.11
58090;BME280;45149;50.976;6.120;2022-12-18T19:04:41;100884.63;;;17.45;48.25
58090;BME280;45149;50.976;6.120;2022-12-18T19:07:07;100889.47;;;17.43;48.16
58090;BME280;45149;50.976;6.120;2022-12-18T19:09:33;100891.13;;;17.44;48.27
58090;BME280;45149;50.976;6.120;2022-12-18T19:12:00;100891.69;;;17.46;47.98
58090;BME280;45149;50.976;6.120;2022-12-18T19:14:44;100889.56;;;17.48;48.07
58090;BME280;45149;50.976;6.120;2022-12-18T19:17:10;100886.59;;;17.49;48.18
58090;BME280;45149;50.976;6.120;2022-12-18T19:19:35;100899.25;;;17.49;48.13
58090;BME280;45149;50.976;6.120;2022-12-18T19:22:01;100896.00;;;17.47;48.17
58090;BME280;45149;50.976;6.120;2022-12-18T19:24:26;100883.56;;;17.46;48.21
58090;BME280;45149;50.976;6.120;2022-12-18T19:26:51;100881.13;;;17.44;48.37
58090;BME280;45149;50.976;6.120;2022-12-18T19:29:18;100891.13;;;17.44;48.34
58090;BME280;45149;50.976;6.120;2022-12-18T19:31:43;100891.34;;;17.42;48.52
58090;BME280;45149;50.976;6.120;2022-12-18T19:34:09;100899.44;;;17.42;48.43
58090;BME280;45149;50.976;6.120;2022-12-18T19:36:37;100894.88;;;17.43;48.65
58090;BME280;45149;50.976;6.120;2022-12-18T19:39:15;100904.03;;;17.42;48.62
58090;BME280;45149;50.976;6.120;2022-12-18T19:41:41;100888.09;;;17.40;48.53
58090;BME280;45149;50.976;6.120;2022-12-18T19:44:09;100892.69;;;17.40;48.54
58090;BME280;45149;50.976;6.120;2022-12-18T19:46:36;100899.16;;;17.39;48.73
58090;BME280;45149;50.976;6.120;2022-12-18T19:58:55;100915.00;;;14.99;43.37
58090;BME280;45149;50.976;6.120;2022-12-18T20:01:23;100905.63;;;15.14;43.35
58090;BME280;45149;50.976;6.120;2022-12-18T20:03:48;100913.47;;;15.27;44.08
58090;BME280;45149;50.976;6.120;2022-12-18T20:08:49;100920.47;;;15.52;44.82
58090;BME280;45149;50.976;6.120;2022-12-18T20:11:15;100921.50;;;15.62;44.97
58090;BME280;45149;50.976;6.120;2022-12-18T20:13:40;100928.16;;;15.72;45.12
58090;BME280;45149;50.976;6.120;2022-12-18T20:16:06;100926.13;;;15.79;45.06
58090;BME280;45149;50.976;6.120;2022-12-18T20:18:31;100924.75;;;15.88;45.11
58090;BME280;45149;50.976;6.120;2022-12-18T20:20:57;100928.91;;;15.96;45.23
58090;BME280;45149;50.976;6.120;2022-12-18T20:23:22;100932.53;;;16.02;44.88
58090;BME280;45149;50.976;6.120;2022-12-18T20:25:48;100933.44;;;16.07;45.20
58090;BME280;45149;50.976;6.120;2022-12-18T20:28:13;100920.31;;;16.11;45.23
58090;BME280;45149;50.976;6.120;2022-12-18T20:30:39;100928.75;;;16.15;45.20
58090;BME280;45149;50.976;6.120;2022-12-18T20:33:04;100925.31;;;16.19;45.31
58090;BME280;45149;50.976;6.120;2022-12-18T20:35:31;100932.66;;;16.24;45.17
58090;BME280;45149;50.976;6.120;2022-12-18T20:37:56;100930.56;;;16.26;45.07
58090;BME280;45149;50.976;6.120;2022-12-18T20:40:22;100934.41;;;16.30;45.31
58090;BME280;45149;50.976;6.120;2022-12-18T20:42:47;100929.56;;;16.32;45.22
58090;BME280;45149;50.976;6.120;2022-12-18T20:45:12;100931.81;;;16.35;45.21
58090;BME280;45149;50.976;6.120;2022-12-18T20:47:38;100930.50;;;16.38;45.07
58090;BME280;45149;50.976;6.120;2022-12-18T20:50:04;100929.66;;;16.37;45.17
58090;BME280;45149;50.976;6.120;2022-12-18T20:52:30;100919.72;;;16.38;45.36
58090;BME280;45149;50.976;6.120;2022-12-18T20:54:55;100927.56;;;16.39;45.36
58090;BME280;45149;50.976;6.120;2022-12-18T20:57:20;100922.72;;;16.41;45.38
58090;BME280;45149;50.976;6.120;2022-12-18T20:59:46;100919.00;;;16.42;45.37
58090;BME280;45149;50.976;6.120;2022-12-18T21:02:12;100907.16;;;16.43;45.29
58090;BME280;45149;50.976;6.120;2022-12-18T21:04:37;100909.84;;;16.43;45.44
58090;BME280;45149;50.976;6.120;2022-12-18T21:07:03;100907.97;;;16.44;45.38
58090;BME280;45149;50.976;6.120;2022-12-18T21:09:30;100906.06;;;16.44;45.42
58090;BME280;45149;50.976;6.120;2022-12-18T21:11:55;100907.16;;;16.43;45.46
58090;BME280;45149;50.976;6.120;2022-12-18T21:14:40;100906.06;;;16.44;45.44
58090;BME280;45149;50.976;6.120;2022-12-18T21:17:05;100903.38;;;16.44;45.50
58090;BME280;45149;50.976;6.120;2022-12-18T21:19:31;100907.97;;;16.44;45.43
58090;BME280;45149;50.976;6.120;2022-12-18T21:21:57;100906.06;;;16.44;45.43
58090;BME280;45149;50.976;6.120;2022-12-18T21:24:23;100908.75;;;16.44;45.51
58090;BME280;45149;50.976;6.120;2022-12-18T21:26:49;100909.59;;;16.45;45.61
58090;BME280;45149;50.976;6.120;2022-12-18T21:29:20;100897.97;;;16.44;45.51
58090;BME280;45149;50.976;6.120;2022-12-18T21:31:46;100899.06;;;16.43;45.58
58090;BME280;45149;50.976;6.120;2022-12-18T21:36:45;100891.78;;;16.44;45.53
58090;BME280;45149;50.976;6.120;2022-12-18T21:39:10;100891.78;;;16.44;45.61
58090;BME280;45149;50.976;6.120;2022-12-18T21:41:36;100888.28;;;16.43;45.67
58090;BME280;45149;50.976;6.120;2022-12-18T21:44:20;100883.94;;;16.42;45.59
58090;BME280;45149;50.976;6.120;2022-12-18T21:46:47;100875.28;;;16.40;45.76
58090;BME280;45149;50.976;6.120;2022-12-18T21:49:14;100876.91;;;16.41;45.77
58090;BME280;45149;50.976;6.120;2022-12-18T21:51:42;100875.06;;;16.42;45.54
58090;BME280;45149;50.976;6.120;2022-12-18T21:54:08;100868.81;;;16.41;45.84
58090;BME280;45149;50.976;6.120;2022-12-18T21:59:22;100867.44;;;16.39;45.85
58090;BME280;45149;50.976;6.120;2022-12-18T22:01:48;100858.53;;;16.38;45.85
58090;BME280;45149;50.976;6.120;2022-12-18T22:04:15;100856.66;;;16.39;45.88
58090;BME280;45149;50.976;6.120;2022-12-18T22:06:41;100850.19;;;16.40;45.88
58090;BME280;45149;50.976;6.120;2022-12-18T22:09:08;100846.94;;;16.38;45.90
58090;BME280;45149;50.976;6.120;2022-12-18T22:11:34;100838.03;;;16.37;45.82
58090;BME280;45149;50.976;6.120;2022-12-18T22:14:00;100836.16;;;16.38;45.91
58090;BME280;45149;50.976;6.120;2022-12-18T22:16:26;100836.16;;;16.38;45.93
58090;BME280;45149;50.976;6.120;2022-12-18T22:18:51;100821.06;;;16.37;46.12
58090;BME280;45149;50.976;6.120;2022-12-18T22:21:25;100822.69;;;16.38;45.79
58090;BME280;45149;50.976;6.120;2022-12-18T22:23:55;100812.38;;;16.35;45.96
58090;BME280;45149;50.976;6.120;2022-12-18T22:26:22;100815.06;;;16.35;45.81
58090;BME280;45149;50.976;6.120;2022-12-18T22:28:48;100812.63;;;16.33;45.78
58090;BME280;45149;50.976;6.120;2022-12-18T22:31:32;100813.47;;;16.34;46.22
58090;BME280;45149;50.976;6.120;2022-12-18T22:33:57;100808.28;;;16.32;46.17
58090;BME280;45149;50.976;6.120;2022-12-18T22:36:23;100803.72;;;16.33;45.92
58090;BME280;45149;50.976;6.120;2022-12-18T22:38:48;100799.41;;;16.32;46.54
58090;BME280;45149;50.976;6.120;2022-12-18T22:41:14;100790.50;;;16.31;46.01
58090;BME280;45149;50.976;6.120;2022-12-18T22:43:39;100786.19;;;16.30;45.99
58090;BME280;45149;50.976;6.120;2022-12-18T22:46:05;100784.28;;;16.30;46.16
58090;BME280;45149;50.976;6.120;2022-12-18T22:48:30;100773.19;;;16.27;45.85
58090;BME280;45149;50.976;6.120;2022-12-18T22:50:55;100780.78;;;16.30;46.17
58090;BME280;45149;50.976;6.120;2022-12-18T22:53:21;100781.84;;;16.29;46.01
58090;BME280;45149;50.976;6.120;2022-12-18T22:55:46;100771.31;;;16.27;46.11
58090;BME280;45149;50.976;6.120;2022-12-18T22:58:11;100768.63;;;16.27;46.00
58090;BME280;45149;50.976;6.120;2022-12-18T23:00:37;100758.88;;;16.26;46.13
58090;BME280;45149;50.976;6.120;2022-12-18T23:03:02;100749.66;;;16.22;46.08
58090;BME280;45149;50.976;6.120;2022-12-18T23:05:29;100752.69;;;16.26;46.08
58090;BME280;45149;50.976;6.120;2022-12-18T23:07:54;100748.94;;;16.27;46.42
58090;BME280;45149;50.976;6.120;2022-12-18T23:10:20;100740.28;;;16.25;46.19
58090;BME280;45149;50.976;6.120;2022-12-18T23:12:45;100740.28;;;16.25;45.78
58090;BME280;45149;50.976;6.120;2022-12-18T23:15:10;100734.88;;;16.25;46.07
58090;BME280;45149;50.976;6.120;2022-12-18T23:17:36;100729.75;;;16.23;46.30
58090;BME280;45149;50.976;6.120;2022-12-18T23:20:01;100725.66;;;16.21;46.29
58090;BME280;45149;50.976;6.120;2022-12-18T23:22:28;100724.59;;;16.22;46.13
58090;BME280;45149;50.976;6.120;2022-12-18T23:24:54;100721.91;;;16.22;46.60
58090;BME280;45149;50.976;6.120;2022-12-18T23:27:19;100729.75;;;16.23;46.24
58090;BME280;45149;50.976;6.120;2022-12-18T23:29:44;100720.84;;;16.23;46.27
58090;BME280;45149;50.976;6.120;2022-12-18T23:32:10;100724.59;;;16.22;46.24
58090;BME280;45149;50.976;6.120;2022-12-18T23:34:35;100714.88;;;16.21;46.36
58090;BME280;45149;50.976;6.120;2022-12-18T23:37:00;100714.88;;;16.21;46.25
58090;BME280;45149;50.976;6.120;2022-12-18T23:39:27;100711.38;;;16.20;46.68
58090;BME280;45149;50.976;6.120;2022-12-18T23:41:53;100704.34;;;16.19;46.41
58090;BME280;45149;50.976;6.120;2022-12-18T23:44:18;100695.72;;;16.17;46.41
58090;BME280;45149;50.976;6.120;2022-12-18T23:46:43;100679.56;;;16.17;46.47
58090;BME280;45149;50.976;6.120;2022-12-18T23:49:09;100672.28;;;16.18;46.31
58090;BME280;45149;50.976;6.120;2022-12-18T23:51:34;100682.25;;;16.17;46.38
58090;BME280;45149;50.976;6.120;2022-12-18T23:54:00;100677.91;;;16.16;46.33
58090;BME280;45149;50.976;6.120;2022-12-18T23:56:27;100691.38;;;16.16;46.31
58090;BME280;45149;50.976;6.120;2022-12-18T23:58:53;100688.94;;;16.15;46.17
